Time;durP1;ratioP1;P1;durP2;ratioP2;P2;SDS_P1;SDS_P2;PMS_P1;PMS_P2;Temp;Humidity;BMP_temperature;BMP_pressure;BME280_temperature;BME280_humidity;BME280_pressure;Samples;Min_cycle;Max_cycle;Signal;HPM_P1;HPM_P2
2022/03/05 00:02:00;;;;;;;43.33;18.13;;;;;;;;;;5071401;28;20025;-75
2022/03/05 00:04:26;;;;;;;49.55;19.23;;;;;;;;;;5071196;28;20151;-73
2022/03/05 00:06:52;;;;;;;47.90;18.08;;;;;;;;;;5070782;28;20024;-76
2022/03/05 00:09:18;;;;;;;49.67;19.45;;;;;;;;;;5070699;28;20584;-75
2022/03/05 00:11:44;;;;;;;46.05;18.10;;;;;;;;;;5069572;28;20095;-76
2022/03/05 00:14:10;;;;;;;45.88;19.50;;;;;;;;;;5052522;28;20517;-75
2022/03/05 00:16:37;;;;;;;47.60;18.65;;;;;;;;;;5070676;28;20024;-75
2022/03/05 00:19:03;;;;;;;47.45;18.80;;;;;;;;;;5052632;28;20355;-75
2022/03/05 00:21:29;;;;;;;47.95;19.80;;;;;;;;;;5070035;28;20064;-75
2022/03/05 00:23:55;;;;;;;49.90;19.60;;;;;;;;;;5069928;28;20037;-74
2022/03/05 00:26:21;;;;;;;44.40;18.40;;;;;;;;;;5071255;28;20032;-72
2022/03/05 00:28:47;;;;;;;45.25;18.17;;;;;;;;;;5071321;28;20056;-75
2022/03/05 00:31:13;;;;;;;57.35;20.85;;;;;;;;;;5071389;28;20042;-75
2022/03/05 00:33:40;;;;;;;47.53;18.77;;;;;;;;;;5071796;28;20114;-76
2022/03/05 00:36:07;;;;;;;44.78;18.25;;;;;;;;;;5070417;28;20024;-74
2022/03/05 00:38:33;;;;;;;45.60;19.13;;;;;;;;;;5071307;28;20450;-75
2022/03/05 00:40:59;;;;;;;50.42;18.40;;;;;;;;;;5052577;28;20036;-75
2022/03/05 00:43:25;;;;;;;44.90;19.23;;;;;;;;;;5070868;28;20090;-74
2022/03/05 00:45:51;;;;;;;43.72;19.00;;;;;;;;;;5070663;28;20037;-74
2022/03/05 00:48:17;;;;;;;47.10;21.00;;;;;;;;;;5053167;28;20485;-74
2022/03/05 00:50:43;;;;;;;52.13;20.58;;;;;;;;;;5070596;28;20121;-75
2022/03/05 00:53:11;;;;;;;52.72;18.85;;;;;;;;;;5053720;28;20065;-75
2022/03/05 00:55:40;;;;;;;47.78;19.67;;;;;;;;;;5071156;28;20036;-74
2022/03/05 00:58:06;;;;;;;46.05;19.65;;;;;;;;;;5071054;28;20029;-75
2022/03/05 01:00:32;;;;;;;49.55;18.83;;;;;;;;;;5070851;28;20086;-75
2022/03/05 01:02:58;;;;;;;54.13;21.60;;;;;;;;;;5070112;28;20032;-75
2022/03/05 01:05:24;;;;;;;48.15;19.50;;;;;;;;;;5070464;28;20033;-75
2022/03/05 01:07:50;;;;;;;50.15;20.65;;;;;;;;;;5052037;28;20489;-75
2022/03/05 01:10:16;;;;;;;52.65;21.05;;;;;;;;;;5070098;28;20051;-75
2022/03/05 01:12:42;;;;;;;53.95;19.88;;;;;;;;;;5051845;28;20040;-75
2022/03/05 01:15:09;;;;;;;51.75;19.13;;;;;;;;;;5051452;28;20483;-75
2022/03/05 01:17:35;;;;;;;49.85;18.55;;;;;;;;;;5070326;28;20093;-76
2022/03/05 01:20:01;;;;;;;51.67;19.45;;;;;;;;;;5069516;28;20550;-74
2022/03/05 01:22:27;;;;;;;48.90;19.80;;;;;;;;;;5069536;28;20024;-74
2022/03/05 01:24:53;;;;;;;47.17;18.95;;;;;;;;;;5068622;28;20071;-75
2022/03/05 01:27:21;;;;;;;46.53;18.92;;;;;;;;;;5069242;28;20060;-75
2022/03/05 01:29:47;;;;;;;55.83;21.45;;;;;;;;;;5069224;28;20033;-73
2022/03/05 01:32:13;;;;;;;51.20;19.52;;;;;;;;;;5051048;28;20035;-74
2022/03/05 01:34:39;;;;;;;47.50;18.85;;;;;;;;;;5071422;28;20036;-74
2022/03/05 01:37:05;;;;;;;48.72;19.20;;;;;;;;;;5072697;28;20029;-75
2022/03/05 01:39:31;;;;;;;52.45;21.05;;;;;;;;;;5055631;28;20462;-73
2022/03/05 01:41:57;;;;;;;49.10;19.42;;;;;;;;;;5072319;28;20032;-75
2022/03/05 01:44:24;;;;;;;52.72;19.35;;;;;;;;;;5073441;28;20063;-74
2022/03/05 01:46:50;;;;;;;55.17;19.58;;;;;;;;;;5072885;28;20128;-75
2022/03/05 01:49:16;;;;;;;54.35;21.13;;;;;;;;;;5072643;28;20055;-74
2022/03/05 01:51:43;;;;;;;53.28;21.05;;;;;;;;;;5073064;28;20205;-74
2022/03/05 01:54:09;;;;;;;58.50;20.77;;;;;;;;;;5072790;28;20032;-75
2022/03/05 01:56:36;;;;;;;54.08;20.70;;;;;;;;;;5073177;28;20025;-75
2022/03/05 01:59:02;;;;;;;54.33;19.30;;;;;;;;;;5073251;28;20048;-73
2022/03/05 02:01:28;;;;;;;56.67;19.77;;;;;;;;;;5072918;28;20086;-75
2022/03/05 02:03:55;;;;;;;58.60;20.80;;;;;;;;;;5073257;28;20170;-74
2022/03/05 02:06:21;;;;;;;52.67;19.75;;;;;;;;;;5072648;28;20171;-74
2022/03/05 02:08:48;;;;;;;59.55;20.38;;;;;;;;;;5073440;28;20052;-75
2022/03/05 02:11:14;;;;;;;57.72;20.65;;;;;;;;;;5073430;28;20025;-76
2022/03/05 02:13:42;;;;;;;62.38;20.90;;;;;;;;;;5073505;28;20054;-76
2022/03/05 02:16:08;;;;;;;58.15;20.70;;;;;;;;;;5056188;28;20443;-76
2022/03/05 02:18:34;;;;;;;64.55;21.05;;;;;;;;;;5055665;28;20473;-77
2022/03/05 02:21:01;;;;;;;56.92;19.90;;;;;;;;;;5072899;28;20070;-77
2022/03/05 02:23:27;;;;;;;54.22;19.52;;;;;;;;;;5072875;28;20036;-77
2022/03/05 02:25:57;;;;;;;64.80;22.45;;;;;;;;;;5054756;28;20393;-77
2022/03/05 02:28:24;;;;;;;61.38;21.77;;;;;;;;;;5073135;28;20124;-77
2022/03/05 02:30:50;;;;;;;63.83;21.40;;;;;;;;;;5072419;28;20032;-77
2022/03/05 02:33:16;;;;;;;64.82;22.42;;;;;;;;;;5073005;28;20194;-76
2022/03/05 02:35:46;;;;;;;70.53;21.67;;;;;;;;;;5071373;28;20068;-76
2022/03/05 02:38:12;;;;;;;70.15;23.25;;;;;;;;;;5055910;28;20048;-77
2022/03/05 02:40:39;;;;;;;63.92;20.98;;;;;;;;;;5072850;28;20032;-77
2022/03/05 02:43:05;;;;;;;71.78;21.60;;;;;;;;;;5072824;28;20553;-77
2022/03/05 02:45:32;;;;;;;77.53;22.75;;;;;;;;;;5071832;28;20036;-77
2022/03/05 02:47:58;;;;;;;77.40;23.98;;;;;;;;;;5074205;28;20029;-77
2022/03/05 02:50:24;;;;;;;73.05;22.55;;;;;;;;;;5074497;28;20033;-77
2022/03/05 02:52:50;;;;;;;83.53;24.33;;;;;;;;;;5056308;28;20539;-78
2022/03/05 02:55:16;;;;;;;71.70;22.35;;;;;;;;;;5073900;28;20350;-77
2022/03/05 02:57:42;;;;;;;71.30;21.65;;;;;;;;;;5073723;28;20032;-77
2022/03/05 03:00:08;;;;;;;67.80;22.77;;;;;;;;;;5074789;28;20173;-78
2022/03/05 03:02:34;;;;;;;74.85;21.65;;;;;;;;;;5074642;28;20081;-77
2022/03/05 03:05:01;;;;;;;80.90;23.00;;;;;;;;;;5073411;28;20033;-79
2022/03/05 03:07:27;;;;;;;67.10;21.60;;;;;;;;;;5074254;28;20036;-78
2022/03/05 03:09:53;;;;;;;78.00;22.58;;;;;;;;;;5073999;28;20028;-78
2022/03/05 03:12:19;;;;;;;80.60;22.92;;;;;;;;;;5074366;28;20245;-78
2022/03/05 03:14:45;;;;;;;67.85;21.38;;;;;;;;;;5074968;28;20317;-78
2022/03/05 03:17:11;;;;;;;69.80;23.13;;;;;;;;;;5073385;28;20032;-78
2022/03/05 03:19:37;;;;;;;73.20;23.25;;;;;;;;;;5072697;28;20025;-78
2022/03/05 03:22:04;;;;;;;82.32;24.30;;;;;;;;;;5072379;28;20037;-79
2022/03/05 03:24:30;;;;;;;82.78;24.98;;;;;;;;;;5072123;28;20036;-78
2022/03/05 03:26:56;;;;;;;76.20;23.73;;;;;;;;;;5053419;28;20036;-78
2022/03/05 03:29:22;;;;;;;89.03;26.08;;;;;;;;;;5072597;28;20032;-79
2022/03/05 03:32:07;;;;;;;86.10;24.67;;;;;;;;;;5072094;28;20462;-79
2022/03/05 03:34:34;;;;;;;94.82;25.92;;;;;;;;;;5072324;28;20024;-79
2022/03/05 03:37:00;;;;;;;85.15;23.50;;;;;;;;;;5053720;28;20027;-79
2022/03/05 03:39:27;;;;;;;84.85;23.85;;;;;;;;;;5071861;28;20107;-78
2022/03/05 03:41:53;;;;;;;94.00;24.88;;;;;;;;;;5071753;28;20135;-78
2022/03/05 03:44:19;;;;;;;87.90;24.27;;;;;;;;;;5073480;28;20024;-78
2022/03/05 03:46:45;;;;;;;91.28;25.65;;;;;;;;;;5073669;28;20029;-78
2022/03/05 03:49:11;;;;;;;94.88;25.98;;;;;;;;;;5073016;28;20135;-78
2022/03/05 03:51:37;;;;;;;91.25;26.60;;;;;;;;;;5073794;28;20032;-79
2022/03/05 03:54:03;;;;;;;91.85;26.20;;;;;;;;;;5073678;28;20115;-79
2022/03/05 03:56:29;;;;;;;91.45;26.08;;;;;;;;;;5072368;28;20024;-78
2022/03/05 03:58:55;;;;;;;90.43;25.40;;;;;;;;;;5073022;28;20413;-79
2022/03/05 04:01:22;;;;;;;89.65;25.48;;;;;;;;;;5072853;28;20523;-79
2022/03/05 04:03:48;;;;;;;101.70;26.55;;;;;;;;;;5056033;28;20055;-79
2022/03/05 04:06:14;;;;;;;86.80;25.73;;;;;;;;;;5055241;28;20959;-79
2022/03/05 04:08:42;;;;;;;88.20;25.90;;;;;;;;;;5072364;28;20093;-78
2022/03/05 04:11:12;;;;;;;84.85;25.00;;;;;;;;;;5073209;28;20067;-79
2022/03/05 04:13:38;;;;;;;94.47;26.38;;;;;;;;;;5073345;28;20406;-78
2022/03/05 04:16:05;;;;;;;89.35;25.33;;;;;;;;;;5053155;28;20048;-79
2022/03/05 04:18:31;;;;;;;84.28;26.27;;;;;;;;;;5071127;28;20140;-79
2022/03/05 04:20:58;;;;;;;93.60;27.90;;;;;;;;;;5070429;28;20043;-78
2022/03/05 04:23:24;;;;;;;94.40;25.92;;;;;;;;;;5071461;28;20437;-79
2022/03/05 04:25:50;;;;;;;89.30;25.90;;;;;;;;;;5070403;28;20040;-79
2022/03/05 04:28:16;;;;;;;90.88;24.98;;;;;;;;;;5070407;28;20017;-79
2022/03/05 04:30:43;;;;;;;84.22;25.58;;;;;;;;;;5071143;28;20036;-80
2022/03/05 04:33:09;;;;;;;82.93;24.25;;;;;;;;;;5053096;28;20031;-79
2022/03/05 04:35:35;;;;;;;85.00;26.17;;;;;;;;;;5070618;28;20036;-79
2022/03/05 04:38:01;;;;;;;90.20;27.08;;;;;;;;;;5070451;28;20023;-80
2022/03/05 04:40:27;;;;;;;82.03;26.42;;;;;;;;;;5071494;28;20021;-79
2022/03/05 04:42:53;;;;;;;94.65;26.65;;;;;;;;;;5072275;28;20031;-79
2022/03/05 04:45:19;;;;;;;96.70;27.20;;;;;;;;;;5072187;28;20029;-78
2022/03/05 04:47:46;;;;;;;98.75;26.13;;;;;;;;;;5072858;28;20028;-79
2022/03/05 04:50:12;;;;;;;92.15;26.00;;;;;;;;;;5072929;28;20567;-78
2022/03/05 04:52:39;;;;;;;99.00;27.20;;;;;;;;;;5072566;28;20166;-80
2022/03/05 04:55:05;;;;;;;92.45;26.85;;;;;;;;;;5072615;28;20108;-79
2022/03/05 04:57:31;;;;;;;105.10;26.67;;;;;;;;;;5072490;28;20021;-79
2022/03/05 04:59:57;;;;;;;92.95;25.42;;;;;;;;;;5072207;28;20028;-79
2022/03/05 05:02:23;;;;;;;95.70;26.60;;;;;;;;;;5073057;28;20032;-79
2022/03/05 05:04:49;;;;;;;99.25;28.42;;;;;;;;;;5072202;28;20074;-79
2022/03/05 05:07:16;;;;;;;95.80;26.45;;;;;;;;;;5054461;28;20036;-79
2022/03/05 05:09:42;;;;;;;87.28;25.10;;;;;;;;;;5076708;28;20036;-79
2022/03/05 05:12:08;;;;;;;103.55;27.48;;;;;;;;;;5076753;28;20501;-80
2022/03/05 05:14:34;;;;;;;83.65;25.13;;;;;;;;;;5077227;28;20056;-78
2022/03/05 05:17:00;;;;;;;93.50;26.73;;;;;;;;;;5076132;28;20056;-79
2022/03/05 05:19:30;;;;;;;92.15;25.73;;;;;;;;;;5076709;28;20081;-80
2022/03/05 05:22:06;;;;;;;89.57;26.58;;;;;;;;;;5076737;28;20020;-79
2022/03/05 05:24:33;;;;;;;104.65;28.88;;;;;;;;;;5076778;28;20035;-78
2022/03/05 05:27:00;;;;;;;89.43;27.10;;;;;;;;;;5076436;28;20029;-79
2022/03/05 05:29:26;;;;;;;94.70;27.05;;;;;;;;;;5076732;28;20036;-80
2022/03/05 05:31:52;;;;;;;89.57;26.98;;;;;;;;;;5077697;28;20027;-80
2022/03/05 05:34:18;;;;;;;92.38;26.83;;;;;;;;;;5079289;28;20217;-80
2022/03/05 05:36:44;;;;;;;100.10;29.08;;;;;;;;;;5077660;28;20040;-80
2022/03/05 05:39:11;;;;;;;94.55;27.15;;;;;;;;;;5078856;28;20095;-80
2022/03/05 05:41:37;;;;;;;97.75;29.00;;;;;;;;;;5078550;28;20024;-80
2022/03/05 05:44:04;;;;;;;90.47;27.73;;;;;;;;;;5078673;28;20090;-81
2022/03/05 05:46:30;;;;;;;89.32;27.80;;;;;;;;;;5079004;28;20055;-81
2022/03/05 05:48:57;;;;;;;108.25;28.50;;;;;;;;;;5060441;28;20384;-79
2022/03/05 05:51:23;;;;;;;106.40;28.52;;;;;;;;;;5061101;28;20032;-80
2022/03/05 05:53:49;;;;;;;93.38;28.55;;;;;;;;;;5079172;28;20417;-80
2022/03/05 05:56:15;;;;;;;97.53;28.75;;;;;;;;;;5078095;28;20028;-79
2022/03/05 05:58:42;;;;;;;99.55;28.52;;;;;;;;;;5076737;28;20029;-80
2022/03/05 06:01:10;;;;;;;94.45;27.75;;;;;;;;;;5076620;28;20051;-80
2022/03/05 06:03:36;;;;;;;101.80;28.77;;;;;;;;;;5076328;28;20070;-80
2022/03/05 06:06:02;;;;;;;98.20;29.67;;;;;;;;;;5076731;28;20032;-79
2022/03/05 06:08:28;;;;;;;103.32;29.50;;;;;;;;;;5076302;28;20629;-79
2022/03/05 06:10:57;;;;;;;95.00;28.48;;;;;;;;;;5076402;28;20028;-80
2022/03/05 06:13:23;;;;;;;99.80;29.23;;;;;;;;;;5076519;28;20052;-80
2022/03/05 06:15:49;;;;;;;103.03;29.35;;;;;;;;;;5076266;28;20024;-80
2022/03/05 06:18:15;;;;;;;104.30;29.58;;;;;;;;;;5076285;28;20031;-79
2022/03/05 06:20:41;;;;;;;91.93;26.92;;;;;;;;;;5075873;28;20044;-80
2022/03/05 06:23:07;;;;;;;95.22;27.92;;;;;;;;;;5075915;28;20101;-80
2022/03/05 06:25:33;;;;;;;99.10;28.00;;;;;;;;;;5074897;28;20036;-80
2022/03/05 06:28:00;;;;;;;97.82;28.30;;;;;;;;;;5075074;28;20493;-80
2022/03/05 06:30:26;;;;;;;99.90;29.95;;;;;;;;;;5075235;28;20020;-80
2022/03/05 06:32:52;;;;;;;110.45;31.10;;;;;;;;;;5074151;28;20032;-80
2022/03/05 06:35:18;;;;;;;108.15;31.15;;;;;;;;;;5075350;28;20066;-81
2022/03/05 06:37:45;;;;;;;100.13;28.83;;;;;;;;;;5056581;28;20199;-80
2022/03/05 06:40:11;;;;;;;120.95;29.80;;;;;;;;;;5075305;28;20029;-80
2022/03/05 06:42:40;;;;;;;104.97;28.42;;;;;;;;;;5057620;28;20029;-80
2022/03/05 06:45:08;;;;;;;109.47;30.75;;;;;;;;;;5074249;28;20051;-80
2022/03/05 06:47:34;;;;;;;113.55;30.88;;;;;;;;;;5054804;28;20041;-80
2022/03/05 06:50:00;;;;;;;106.20;30.38;;;;;;;;;;5072847;28;20021;-80
2022/03/05 06:52:26;;;;;;;95.95;29.60;;;;;;;;;;5073016;28;20112;-80
2022/03/05 06:54:52;;;;;;;102.43;31.17;;;;;;;;;;5072795;28;20016;-80
2022/03/05 06:57:18;;;;;;;104.35;31.48;;;;;;;;;;5073237;28;20538;-81
2022/03/05 06:59:44;;;;;;;96.07;28.92;;;;;;;;;;5073086;28;20052;-80
2022/03/05 07:02:10;;;;;;;89.53;29.73;;;;;;;;;;5073220;28;20075;-81
2022/03/05 07:04:36;;;;;;;87.40;27.48;;;;;;;;;;5073156;28;20028;-81
2022/03/05 07:07:02;;;;;;;80.78;27.05;;;;;;;;;;5073101;28;20029;-80
2022/03/05 07:09:29;;;;;;;76.93;27.55;;;;;;;;;;5075280;28;20196;-81
2022/03/05 07:11:55;;;;;;;66.55;23.83;;;;;;;;;;5057794;28;20013;-80
2022/03/05 07:14:21;;;;;;;74.40;25.58;;;;;;;;;;5074476;28;20076;-80
2022/03/05 07:16:47;;;;;;;73.82;24.20;;;;;;;;;;5074030;28;20044;-80
2022/03/05 07:19:13;;;;;;;71.13;25.70;;;;;;;;;;5074354;28;20028;-79
2022/03/05 07:21:39;;;;;;;64.38;23.55;;;;;;;;;;5074884;28;20080;-79
2022/03/05 07:24:05;;;;;;;62.67;23.77;;;;;;;;;;5056751;28;20033;-79
2022/03/05 07:26:31;;;;;;;63.10;25.33;;;;;;;;;;5073790;28;20024;-79
2022/03/05 07:28:57;;;;;;;63.60;23.63;;;;;;;;;;5074955;28;20086;-80
2022/03/05 07:31:23;;;;;;;61.88;23.33;;;;;;;;;;5054492;28;20135;-80
2022/03/05 07:33:49;;;;;;;66.32;24.13;;;;;;;;;;5072040;28;20039;-80
2022/03/05 07:36:16;;;;;;;61.97;24.75;;;;;;;;;;5072030;28;20119;-79
2022/03/05 07:38:44;;;;;;;65.95;24.23;;;;;;;;;;5071525;28;20032;-80
2022/03/05 07:41:10;;;;;;;57.22;23.00;;;;;;;;;;5071830;28;20055;-79
2022/03/05 07:43:36;;;;;;;57.10;23.27;;;;;;;;;;5071940;28;20048;-79
2022/03/05 07:46:03;;;;;;;59.28;22.60;;;;;;;;;;5071109;28;20036;-79
2022/03/05 07:48:29;;;;;;;56.75;23.50;;;;;;;;;;5071284;28;20111;-79
2022/03/05 07:50:58;;;;;;;60.17;24.33;;;;;;;;;;5071749;28;20458;-79
2022/03/05 07:53:24;;;;;;;63.78;24.10;;;;;;;;;;5071583;28;20029;-78
2022/03/05 07:55:50;;;;;;;58.35;23.58;;;;;;;;;;5072488;28;20017;-78
2022/03/05 07:58:16;;;;;;;57.78;23.15;;;;;;;;;;5072770;28;20058;-78
2022/03/05 08:00:42;;;;;;;57.30;23.75;;;;;;;;;;5072233;28;20190;-78
2022/03/05 08:03:09;;;;;;;56.20;22.67;;;;;;;;;;5072841;28;20079;-77
2022/03/05 08:05:35;;;;;;;68.93;26.52;;;;;;;;;;5055367;28;20513;-77
2022/03/05 08:08:01;;;;;;;61.58;23.38;;;;;;;;;;5053524;28;20036;-77
2022/03/05 08:10:27;;;;;;;58.88;23.80;;;;;;;;;;5071280;28;20037;-76
2022/03/05 08:12:53;;;;;;;59.35;24.38;;;;;;;;;;5070594;28;20044;-77
2022/03/05 08:15:19;;;;;;;57.47;23.30;;;;;;;;;;5070387;28;20086;-76
2022/03/05 08:17:56;;;;;;;61.20;24.15;;;;;;;;;;5070366;28;20033;-77
2022/03/05 08:20:22;;;;;;;59.05;23.85;;;;;;;;;;5071079;28;20044;-77
2022/03/05 08:22:48;;;;;;;59.10;23.33;;;;;;;;;;5070513;28;20043;-76
2022/03/05 08:25:15;;;;;;;55.40;22.67;;;;;;;;;;5070103;28;20035;-76
2022/03/05 08:27:41;;;;;;;58.13;23.80;;;;;;;;;;5069854;28;20494;-77
2022/03/05 08:30:07;;;;;;;55.17;22.38;;;;;;;;;;5070401;28;20036;-77
2022/03/05 08:32:34;;;;;;;60.92;24.02;;;;;;;;;;5069850;28;20115;-76
2022/03/05 08:35:00;;;;;;;57.38;24.23;;;;;;;;;;5069949;28;20039;-76
2022/03/05 08:37:27;;;;;;;59.05;25.50;;;;;;;;;;5052139;28;20024;-77
2022/03/05 08:39:54;;;;;;;58.80;24.13;;;;;;;;;;5070060;28;20034;-76
2022/03/05 08:42:20;;;;;;;57.55;24.05;;;;;;;;;;5070295;28;20181;-77
2022/03/05 08:44:46;;;;;;;54.50;22.00;;;;;;;;;;5071285;28;20020;-77
2022/03/05 08:47:12;;;;;;;55.25;23.50;;;;;;;;;;5072064;28;20029;-76
2022/03/05 08:49:39;;;;;;;59.75;22.83;;;;;;;;;;5071817;28;20115;-76
2022/03/05 08:52:05;;;;;;;54.42;23.50;;;;;;;;;;5072624;28;20089;-77
2022/03/05 08:54:31;;;;;;;55.60;24.05;;;;;;;;;;5071661;28;20041;-77
2022/03/05 08:56:57;;;;;;;52.03;22.83;;;;;;;;;;5071736;28;20075;-77
2022/03/05 08:59:23;;;;;;;58.03;24.75;;;;;;;;;;5071245;28;20079;-76
2022/03/05 09:01:49;;;;;;;56.13;23.73;;;;;;;;;;5071738;28;20082;-76
2022/03/05 09:04:15;;;;;;;53.58;23.55;;;;;;;;;;5071094;28;20051;-76
2022/03/05 09:06:41;;;;;;;58.00;25.05;;;;;;;;;;5071380;28;20028;-77
2022/03/05 09:09:08;;;;;;;58.97;24.83;;;;;;;;;;5070573;28;20078;-77
2022/03/05 09:11:37;;;;;;;56.83;23.08;;;;;;;;;;5070407;28;20043;-76
2022/03/05 09:14:03;;;;;;;55.85;24.15;;;;;;;;;;5069415;28;20280;-77
2022/03/05 09:16:29;;;;;;;64.10;24.90;;;;;;;;;;5069637;28;20036;-76
2022/03/05 09:18:55;;;;;;;59.92;25.70;;;;;;;;;;5069158;28;20048;-75
2022/03/05 09:21:21;;;;;;;60.75;25.05;;;;;;;;;;5069187;28;20032;-77
2022/03/05 09:23:47;;;;;;;55.30;24.38;;;;;;;;;;5069048;28;20461;-76
2022/03/05 09:26:14;;;;;;;56.58;24.77;;;;;;;;;;5069344;28;20049;-76
2022/03/05 09:28:40;;;;;;;53.85;24.20;;;;;;;;;;5068987;28;20025;-77
2022/03/05 09:31:06;;;;;;;58.65;25.08;;;;;;;;;;5069523;28;20398;-77
2022/03/05 09:33:32;;;;;;;56.92;25.67;;;;;;;;;;5051442;28;20036;-76
2022/03/05 09:35:59;;;;;;;53.28;24.65;;;;;;;;;;5069408;28;20264;-76
2022/03/05 09:38:25;;;;;;;59.10;27.13;;;;;;;;;;5068965;28;20067;-75
2022/03/05 09:40:51;;;;;;;59.13;26.02;;;;;;;;;;5069750;28;20108;-77
2022/03/05 09:43:20;;;;;;;57.03;25.45;;;;;;;;;;5070594;28;20029;-77
2022/03/05 09:45:47;;;;;;;55.80;25.63;;;;;;;;;;5070666;28;20028;-74
2022/03/05 09:48:13;;;;;;;55.67;25.40;;;;;;;;;;5069362;28;20039;-77
2022/03/05 09:50:39;;;;;;;57.25;25.73;;;;;;;;;;5069945;28;20397;-76
2022/03/05 09:53:05;;;;;;;61.25;27.48;;;;;;;;;;5070628;28;20016;-76
2022/03/05 09:55:32;;;;;;;53.97;26.13;;;;;;;;;;5072242;28;20036;-76
2022/03/05 09:57:59;;;;;;;55.35;26.08;;;;;;;;;;5073110;28;20028;-76
2022/03/05 10:00:25;;;;;;;60.13;26.80;;;;;;;;;;5055742;28;20029;-76
2022/03/05 10:02:51;;;;;;;57.25;26.00;;;;;;;;;;5073490;28;20078;-76
2022/03/05 10:05:24;;;;;;;56.17;26.33;;;;;;;;;;5055465;28;20025;-77
2022/03/05 10:08:01;;;;;;;58.20;26.42;;;;;;;;;;5073038;28;20028;-76
2022/03/05 10:10:27;;;;;;;53.17;25.13;;;;;;;;;;5072148;28;20021;-76
2022/03/05 10:12:53;;;;;;;57.72;27.38;;;;;;;;;;5072649;28;20052;-76
2022/03/05 10:15:22;;;;;;;49.92;24.42;;;;;;;;;;5072560;28;20025;-77
2022/03/05 10:17:56;;;;;;;61.70;27.77;;;;;;;;;;5072462;28;20040;-76
2022/03/05 10:20:24;;;;;;;55.70;27.38;;;;;;;;;;5071880;28;20398;-76
2022/03/05 10:22:55;;;;;;;57.35;27.65;;;;;;;;;;5072865;28;20025;-75
2022/03/05 10:25:31;;;;;;;54.50;27.40;;;;;;;;;;5072560;28;20108;-76
2022/03/05 10:28:05;;;;;;;50.92;25.25;;;;;;;;;;5071986;28;20031;-76
2022/03/05 10:30:32;;;;;;;55.35;26.10;;;;;;;;;;5071815;28;20119;-76
2022/03/05 10:32:58;;;;;;;80.65;29.40;;;;;;;;;;5072070;28;20029;-76
2022/03/05 10:35:24;;;;;;;56.35;26.88;;;;;;;;;;5072784;28;20025;-76
2022/03/05 10:37:53;;;;;;;54.17;26.00;;;;;;;;;;5072720;28;20324;-75
2022/03/05 10:40:26;;;;;;;53.35;26.35;;;;;;;;;;5072756;28;20032;-75
2022/03/05 10:42:52;;;;;;;53.15;28.25;;;;;;;;;;5073313;28;20048;-75
2022/03/05 10:45:19;;;;;;;51.95;27.02;;;;;;;;;;5072896;28;20094;-76
2022/03/05 10:47:46;;;;;;;55.22;27.83;;;;;;;;;;5073488;28;20086;-76
2022/03/05 10:50:15;;;;;;;55.22;27.15;;;;;;;;;;5072609;28;20032;-75
2022/03/05 10:52:48;;;;;;;61.75;29.15;;;;;;;;;;5072670;28;20477;-77
2022/03/05 10:55:16;;;;;;;57.80;29.08;;;;;;;;;;5073266;28;20016;-76
2022/03/05 10:57:55;;;;;;;58.28;28.20;;;;;;;;;;5072990;28;20025;-75
2022/03/05 11:00:21;;;;;;;57.80;28.70;;;;;;;;;;5073592;28;20478;-77
2022/03/05 11:02:49;;;;;;;70.60;29.67;;;;;;;;;;5073930;28;20028;-75
2022/03/05 11:05:15;;;;;;;65.55;29.52;;;;;;;;;;5073365;28;20114;-74
2022/03/05 11:07:42;;;;;;;66.07;28.98;;;;;;;;;;5072280;28;20032;-75
2022/03/05 11:10:08;;;;;;;58.90;28.48;;;;;;;;;;5072805;28;20447;-75
2022/03/05 11:12:35;;;;;;;58.50;27.95;;;;;;;;;;5072345;28;20028;-75
2022/03/05 11:15:01;;;;;;;71.95;29.77;;;;;;;;;;5071861;28;20506;-76
2022/03/05 11:17:28;;;;;;;64.28;26.65;;;;;;;;;;5072120;28;20528;-74
2022/03/05 11:19:54;;;;;;;69.10;28.35;;;;;;;;;;5071320;28;20055;-75
2022/03/05 11:22:20;;;;;;;70.13;29.52;;;;;;;;;;5071971;28;20020;-75
2022/03/05 11:24:46;;;;;;;65.57;29.77;;;;;;;;;;5072048;28;20456;-74
2022/03/05 11:27:14;;;;;;;59.22;26.80;;;;;;;;;;5072131;28;20111;-74
2022/03/05 11:29:59;;;;;;;66.45;29.13;;;;;;;;;;5071567;28;20024;-75
2022/03/05 11:32:29;;;;;;;63.03;28.30;;;;;;;;;;5071753;28;20032;-75
2022/03/05 11:34:55;;;;;;;64.75;28.42;;;;;;;;;;5071618;28;20035;-74
2022/03/05 11:37:26;;;;;;;64.40;30.27;;;;;;;;;;5071377;28;20020;-75
2022/03/05 11:42:38;;;;;;;66.00;29.15;;;;;;;;;;5073147;28;19962;-75
2022/03/05 11:45:23;;;;;;;65.68;27.55;;;;;;;;;;5072456;28;20025;-76
2022/03/05 11:47:49;;;;;;;57.30;27.60;;;;;;;;;;5072159;28;20021;-75
2022/03/05 11:50:17;;;;;;;61.78;28.73;;;;;;;;;;5072788;28;20036;-75
2022/03/05 11:52:43;;;;;;;64.68;28.95;;;;;;;;;;5073044;28;20024;-75
2022/03/05 11:55:12;;;;;;;59.15;26.92;;;;;;;;;;5071165;28;20036;-75
2022/03/05 11:57:39;;;;;;;62.33;26.65;;;;;;;;;;5072090;28;20037;-74
2022/03/05 12:00:06;;;;;;;60.92;28.33;;;;;;;;;;5070981;28;20361;-75
2022/03/05 12:02:38;;;;;;;57.38;27.38;;;;;;;;;;5072547;28;20028;-75
2022/03/05 12:05:04;;;;;;;55.40;26.25;;;;;;;;;;5072695;28;20406;-74
2022/03/05 12:07:38;;;;;;;62.20;29.05;;;;;;;;;;5053826;28;20021;-74
2022/03/05 12:10:22;;;;;;;52.97;26.55;;;;;;;;;;5071079;28;20202;-75
2022/03/05 12:12:52;;;;;;;56.03;27.50;;;;;;;;;;5071985;28;20094;-76
2022/03/05 12:15:18;;;;;;;59.65;28.77;;;;;;;;;;5071329;28;20052;-75
2022/03/05 12:17:46;;;;;;;56.47;28.52;;;;;;;;;;5071176;28;20508;-75
2022/03/05 12:20:14;;;;;;;56.97;27.38;;;;;;;;;;5070495;28;20032;-76
2022/03/05 12:22:47;;;;;;;56.78;28.63;;;;;;;;;;5070184;28;20032;-76
2022/03/05 12:25:13;;;;;;;52.97;27.00;;;;;;;;;;5070331;28;20024;-76
2022/03/05 12:27:46;;;;;;;59.28;27.45;;;;;;;;;;5070410;28;20032;-76
2022/03/05 12:30:13;;;;;;;54.22;27.92;;;;;;;;;;5069843;28;20028;-75
2022/03/05 12:32:41;;;;;;;57.83;28.45;;;;;;;;;;5070556;28;20074;-75
2022/03/05 12:35:08;;;;;;;49.33;26.98;;;;;;;;;;5070499;28;20059;-76
2022/03/05 12:37:35;;;;;;;53.58;28.30;;;;;;;;;;5070306;28;20106;-76
2022/03/05 12:40:01;;;;;;;53.95;28.65;;;;;;;;;;5052214;28;20036;-76
2022/03/05 12:42:54;;;;;;;56.85;27.98;;;;;;;;;;5069970;28;20039;-75
2022/03/05 12:45:21;;;;;;;55.95;27.55;;;;;;;;;;5065505;28;20032;-75
2022/03/05 12:47:48;;;;;;;60.08;28.45;;;;;;;;;;5070876;28;20031;-71
2022/03/05 12:50:32;;;;;;;55.50;27.50;;;;;;;;;;5070023;28;20052;-74
2022/03/05 12:52:58;;;;;;;53.58;28.88;;;;;;;;;;5071770;28;20063;-76
2022/03/05 12:55:28;;;;;;;57.70;29.02;;;;;;;;;;5071309;28;20028;-75
2022/03/05 12:57:56;;;;;;;54.10;28.03;;;;;;;;;;5071439;28;20030;-76
2022/03/05 13:00:22;;;;;;;49.97;27.27;;;;;;;;;;5071193;28;20345;-75
2022/03/05 13:02:50;;;;;;;54.10;27.58;;;;;;;;;;5071086;28;20109;-74
2022/03/05 13:05:16;;;;;;;55.97;28.48;;;;;;;;;;5070369;28;20085;-75
2022/03/05 13:07:43;;;;;;;58.80;28.92;;;;;;;;;;5071284;28;20040;-75
2022/03/05 13:10:10;;;;;;;53.20;28.50;;;;;;;;;;5070314;28;20041;-75
2022/03/05 13:12:36;;;;;;;54.53;27.67;;;;;;;;;;5070457;28;20055;-74
2022/03/05 13:15:03;;;;;;;55.20;27.00;;;;;;;;;;5071341;28;20053;-74
2022/03/05 13:17:29;;;;;;;52.95;27.58;;;;;;;;;;5071055;28;20036;-76
2022/03/05 13:19:59;;;;;;;50.03;26.77;;;;;;;;;;5070836;28;20139;-74
2022/03/05 13:22:26;;;;;;;49.43;26.53;;;;;;;;;;5070626;28;20040;-74
2022/03/05 13:24:52;;;;;;;50.33;26.02;;;;;;;;;;5071430;28;20031;-75
2022/03/05 13:27:23;;;;;;;53.42;26.65;;;;;;;;;;5070689;28;20074;-73
2022/03/05 13:29:51;;;;;;;51.15;26.58;;;;;;;;;;5070982;28;20029;-74
2022/03/05 13:32:17;;;;;;;60.47;28.23;;;;;;;;;;5075221;28;20029;-75
2022/03/05 13:34:43;;;;;;;47.45;25.58;;;;;;;;;;5074743;28;20489;-74
2022/03/05 13:37:10;;;;;;;48.15;26.55;;;;;;;;;;5075193;28;20040;-76
2022/03/05 13:39:36;;;;;;;48.25;25.73;;;;;;;;;;5074672;28;20070;-74
2022/03/05 13:42:09;;;;;;;53.08;26.20;;;;;;;;;;5073132;28;20029;-74
2022/03/05 13:44:37;;;;;;;47.53;26.00;;;;;;;;;;5075295;28;20024;-74
2022/03/05 13:47:05;;;;;;;60.40;28.92;;;;;;;;;;5074733;28;20028;-74
2022/03/05 13:49:31;;;;;;;50.50;27.13;;;;;;;;;;5073991;28;20028;-74
2022/03/05 13:51:59;;;;;;;48.47;27.00;;;;;;;;;;5074028;28;20082;-74
2022/03/05 13:54:33;;;;;;;50.90;27.10;;;;;;;;;;5073890;28;20563;-76
2022/03/05 13:56:59;;;;;;;57.80;27.75;;;;;;;;;;5073537;28;20568;-76
2022/03/05 13:59:44;;;;;;;50.47;25.95;;;;;;;;;;5073413;28;20050;-74
2022/03/05 14:02:11;;;;;;;49.78;26.63;;;;;;;;;;5073028;28;20040;-75
2022/03/05 14:04:55;;;;;;;50.53;26.48;;;;;;;;;;5073177;28;20028;-74
2022/03/05 14:07:21;;;;;;;48.60;26.38;;;;;;;;;;5072968;28;20035;-74
2022/03/05 14:09:47;;;;;;;49.80;27.17;;;;;;;;;;5072261;28;20029;-74
2022/03/05 14:12:15;;;;;;;51.70;28.00;;;;;;;;;;5072641;28;20024;-75
2022/03/05 14:14:43;;;;;;;51.88;27.17;;;;;;;;;;5073177;28;20055;-76
2022/03/05 14:17:09;;;;;;;48.28;26.58;;;;;;;;;;5072275;28;20032;-76
2022/03/05 14:19:36;;;;;;;52.72;26.80;;;;;;;;;;5072570;28;20047;-75